Time;durP1;ratioP1;P1;durP2;ratioP2;P2;SDS_P1;SDS_P2;PMS_P1;PMS_P2;Temp;Humidity;BMP_temperature;BMP_pressure;BME280_temperature;BME280_humidity;BME280_pressure;Samples;Min_cycle;Max_cycle;Signal;HPM_P1;HPM_P2
2022/05/29 00:02:20;;;;;;;5.20;3.63;;;;;;;;;;10485896;28;20044;-79
2022/05/29 00:07:20;;;;;;;4.65;3.30;;;;;;;;;;10475775;28;20045;-78
2022/05/29 00:12:22;;;;;;;4.93;4.20;;;;;;;;;;10477781;28;20090;-77
2022/05/29 00:17:23;;;;;;;4.18;3.75;;;;;;;;;;10453385;28;20033;-78
2022/05/29 00:22:31;;;;;;;4.55;3.95;;;;;;;;;;10452761;28;20411;-75
2022/05/29 00:27:31;;;;;;;6.90;4.15;;;;;;;;;;10462745;28;20385;-76
2022/05/29 00:32:33;;;;;;;4.40;4.00;;;;;;;;;;10466292;28;20049;-77
2022/05/29 00:37:38;;;;;;;4.68;3.65;;;;;;;;;;10473667;28;20283;-75
2022/05/29 00:42:38;;;;;;;5.28;3.90;;;;;;;;;;10460976;28;20389;-78
2022/05/29 00:47:38;;;;;;;5.30;3.83;;;;;;;;;;10490680;28;20049;-76
2022/05/29 00:52:39;;;;;;;3.93;3.43;;;;;;;;;;10479729;28;20291;-78
2022/05/29 00:57:43;;;;;;;4.88;3.80;;;;;;;;;;10482608;28;20040;-79
2022/05/29 01:02:44;;;;;;;3.45;3.15;;;;;;;;;;10478921;28;20049;-78
2022/05/29 01:07:48;;;;;;;4.03;3.63;;;;;;;;;;10442885;28;20099;-78
2022/05/29 01:13:09;;;;;;;8.00;4.38;;;;;;;;;;10429473;28;20124;-77
2022/05/29 01:18:10;;;;;;;5.55;4.47;;;;;;;;;;10472319;28;20057;-77
2022/05/29 01:23:28;;;;;;;4.15;3.70;;;;;;;;;;10483428;28;20135;-79
2022/05/29 01:28:47;;;;;;;5.63;4.28;;;;;;;;;;10486903;28;20095;-77
2022/05/29 01:33:54;;;;;;;4.93;3.75;;;;;;;;;;10458676;28;20045;-77
2022/05/29 01:39:06;;;;;;;5.20;4.28;;;;;;;;;;10479925;28;20154;-75
2022/05/29 01:44:15;;;;;;;5.90;4.05;;;;;;;;;;10467936;28;20569;-76
2022/05/29 01:49:24;;;;;;;5.68;3.95;;;;;;;;;;10476246;28;20133;-76
2022/05/29 01:54:28;;;;;;;4.78;4.13;;;;;;;;;;10481584;28;20193;-77
2022/05/29 01:59:44;;;;;;;4.88;4.20;;;;;;;;;;10463832;28;20033;-76
2022/05/29 02:04:47;;;;;;;5.55;4.50;;;;;;;;;;10472456;28;20056;-76
2022/05/29 02:09:51;;;;;;;5.43;3.90;;;;;;;;;;10461035;28;20033;-77
2022/05/29 02:14:55;;;;;;;5.40;3.47;;;;;;;;;;10446518;28;20056;-76
2022/05/29 02:20:00;;;;;;;5.93;3.75;;;;;;;;;;10446920;28;20048;-78
2022/05/29 02:25:04;;;;;;;4.63;3.38;;;;;;;;;;10451259;28;20049;-77
2022/05/29 02:30:05;;;;;;;4.38;3.50;;;;;;;;;;10473844;28;20036;-79
2022/05/29 02:35:10;;;;;;;4.53;3.10;;;;;;;;;;10469795;28;20040;-79
2022/05/29 02:40:36;;;;;;;4.75;3.33;;;;;;;;;;10475318;28;20037;-79
2022/05/29 02:45:43;;;;;;;4.07;3.35;;;;;;;;;;10483631;28;20052;-78
2022/05/29 02:50:47;;;;;;;4.25;3.50;;;;;;;;;;10462282;28;20041;-77
2022/05/29 02:55:48;;;;;;;4.10;2.92;;;;;;;;;;10469394;28;20450;-77
2022/05/29 03:00:57;;;;;;;4.55;3.05;;;;;;;;;;10434651;28;20095;-78
2022/05/29 03:12:02;;;;;;;5.22;3.20;;;;;;;;;;10460564;28;20052;-78
2022/05/29 03:17:42;;;;;;;4.95;3.10;;;;;;;;;;10461240;28;20064;-78
2022/05/29 03:22:51;;;;;;;5.05;3.30;;;;;;;;;;10300488;28;20050;-77
2022/05/29 03:27:55;;;;;;;5.43;3.40;;;;;;;;;;10425177;28;20105;-76
2022/05/29 03:32:57;;;;;;;4.43;3.53;;;;;;;;;;10452902;28;20056;-76
2022/05/29 03:37:58;;;;;;;5.32;3.45;;;;;;;;;;10474777;28;20404;-78
2022/05/29 03:42:59;;;;;;;7.05;4.68;;;;;;;;;;10450619;28;20059;-78
2022/05/29 03:48:02;;;;;;;5.57;4.38;;;;;;;;;;10467398;28;20046;-77
2022/05/29 03:53:03;;;;;;;;;;;;;;;;;;10454196;28;20078;-78
2022/05/29 03:58:03;;;;;;;4.47;3.50;;;;;;;;;;10413343;28;19913;-77
2022/05/29 04:03:04;;;;;;;6.72;3.80;;;;;;;;;;10471505;28;20049;-75
2022/05/29 04:13:23;;;;;;;5.32;3.55;;;;;;;;;;10445641;28;20044;-78
2022/05/29 04:18:23;;;;;;;8.02;4.88;;;;;;;;;;10442793;28;20104;-79
2022/05/29 04:23:24;;;;;;;5.57;3.70;;;;;;;;;;10478112;28;20045;-78
2022/05/29 04:28:25;;;;;;;6.65;4.10;;;;;;;;;;10460163;28;20488;-79
2022/05/29 04:33:25;;;;;;;7.00;4.22;;;;;;;;;;10432273;28;20079;-79
2022/05/29 04:38:27;;;;;;;5.03;3.63;;;;;;;;;;10472950;28;20408;-78
2022/05/29 04:43:28;;;;;;;4.95;3.38;;;;;;;;;;10474984;28;20388;-77
2022/05/29 04:48:28;;;;;;;5.73;4.00;;;;;;;;;;10470805;28;20541;-75
2022/05/29 04:53:29;;;;;;;5.20;3.90;;;;;;;;;;10478150;28;20048;-78
2022/05/29 04:58:30;;;;;;;4.90;3.47;;;;;;;;;;10445318;28;20337;-77
2022/05/29 05:03:30;;;;;;;4.13;3.65;;;;;;;;;;10502326;28;20074;-78
2022/05/29 05:08:31;;;;;;;3.75;3.35;;;;;;;;;;10461647;28;20049;-79
2022/05/29 05:13:32;;;;;;;4.80;3.50;;;;;;;;;;10453831;28;20059;-78
2022/05/29 05:18:33;;;;;;;5.22;3.55;;;;;;;;;;10471287;28;20048;-77
2022/05/29 05:23:34;;;;;;;6.10;3.90;;;;;;;;;;10423425;28;20123;-77
2022/05/29 05:28:35;;;;;;;4.97;3.58;;;;;;;;;;10437318;28;20044;-77
2022/05/29 05:33:36;;;;;;;4.38;3.10;;;;;;;;;;10450018;28;20147;-76
2022/05/29 05:38:37;;;;;;;9.32;3.33;;;;;;;;;;10481112;28;20554;-77
2022/05/29 05:43:39;;;;;;;4.35;3.08;;;;;;;;;;10487803;28;20441;-77
2022/05/29 05:48:39;;;;;;;7.15;3.40;;;;;;;;;;10469975;28;20045;-78
2022/05/29 05:53:40;;;;;;;4.40;2.60;;;;;;;;;;10442915;28;20045;-78
2022/05/29 05:58:44;;;;;;;3.20;2.75;;;;;;;;;;10484969;28;20045;-80
2022/05/29 06:03:48;;;;;;;4.15;2.78;;;;;;;;;;10407625;28;20056;-78
2022/05/29 06:08:49;;;;;;;6.03;3.17;;;;;;;;;;10430143;28;20104;-81
2022/05/29 06:14:34;;;;;;;3.60;2.35;;;;;;;;;;10483714;28;20063;-81
2022/05/29 06:19:46;;;;;;;4.68;2.58;;;;;;;;;;10474870;28;20115;-81
2022/05/29 06:24:46;;;;;;;4.10;2.38;;;;;;;;;;10466703;28;20040;-78
2022/05/29 06:29:46;;;;;;;3.95;2.65;;;;;;;;;;10430017;28;20070;-73
2022/05/29 06:34:47;;;;;;;4.83;2.77;;;;;;;;;;10475772;28;20040;-76
2022/05/29 06:39:47;;;;;;;3.05;1.90;;;;;;;;;;10452398;28;20053;-75
2022/05/29 06:44:49;;;;;;;4.10;2.40;;;;;;;;;;10474762;28;20054;-76
2022/05/29 06:49:50;;;;;;;5.57;2.75;;;;;;;;;;10479257;28;20051;-77
2022/05/29 06:54:51;;;;;;;4.72;3.13;;;;;;;;;;10454688;28;20476;-76
2022/05/29 07:10:34;;;;;;;4.47;2.22;;;;;;;;;;10483796;28;20068;-75
2022/05/29 07:15:34;;;;;;;5.18;2.00;;;;;;;;;;10482855;28;20051;-76
2022/05/29 07:20:35;;;;;;;5.10;2.20;;;;;;;;;;10463830;28;20075;-76
2022/05/29 07:25:35;;;;;;;6.15;2.40;;;;;;;;;;10482382;28;20287;-77
2022/05/29 07:30:36;;;;;;;5.28;2.40;;;;;;;;;;10471946;28;20067;-77
2022/05/29 07:35:36;;;;;;;6.27;2.30;;;;;;;;;;10482892;28;20072;-76
2022/05/29 07:40:36;;;;;;;5.23;2.00;;;;;;;;;;10484008;28;20057;-77
2022/05/29 07:45:37;;;;;;;4.53;1.83;;;;;;;;;;10467318;28;20351;-76
2022/05/29 07:50:37;;;;;;;5.53;2.20;;;;;;;;;;10484800;28;20063;-75
2022/05/29 07:55:37;;;;;;;2.87;1.63;;;;;;;;;;10454244;28;20058;-76
2022/05/29 08:00:38;;;;;;;7.90;2.17;;;;;;;;;;10456254;28;20068;-78
2022/05/29 08:05:39;;;;;;;4.00;2.03;;;;;;;;;;10461622;28;20083;-74
2022/05/29 08:10:40;;;;;;;4.80;1.80;;;;;;;;;;10495938;28;20048;-77
2022/05/29 08:15:41;;;;;;;4.57;2.00;;;;;;;;;;10479560;28;20049;-78
2022/05/29 08:20:41;;;;;;;4.75;2.15;;;;;;;;;;10480445;28;20048;-80
2022/05/29 08:31:00;;;;;;;3.80;1.80;;;;;;;;;;10472523;28;20154;-75
2022/05/29 08:36:06;;;;;;;4.97;2.03;;;;;;;;;;10468286;28;20526;-78
2022/05/29 08:41:09;;;;;;;4.90;1.90;;;;;;;;;;10453330;28;20159;-80
2022/05/29 08:46:09;;;;;;;;;;;;;;;;;;10464442;28;20052;-77
2022/05/29 08:51:25;;;;;;;4.18;2.08;;;;;;;;;;10453534;28;19928;-79
2022/05/29 08:56:41;;;;;;;6.32;2.20;;;;;;;;;;10476242;28;20044;-77
2022/05/29 09:01:52;;;;;;;7.20;2.50;;;;;;;;;;10465283;28;20053;-78
2022/05/29 09:06:54;;;;;;;7.53;2.20;;;;;;;;;;10476109;28;20043;-77
2022/05/29 09:11:57;;;;;;;4.75;2.40;;;;;;;;;;10451752;28;20043;-75
2022/05/29 09:16:59;;;;;;;5.50;1.90;;;;;;;;;;10472811;28;20040;-76
2022/05/29 09:22:05;;;;;;;3.97;1.95;;;;;;;;;;10455036;28;20049;-77
2022/05/29 09:27:06;;;;;;;4.30;1.73;;;;;;;;;;10461268;28;20503;-79
2022/05/29 09:32:10;;;;;;;3.45;1.60;;;;;;;;;;10496411;28;20531;-81
2022/05/29 09:37:22;;;;;;;5.78;1.88;;;;;;;;;;10490668;28;20100;-87
2022/05/29 09:42:30;;;;;;;4.28;1.73;;;;;;;;;;10490770;28;20051;-80
2022/05/29 09:52:51;;;;;;;3.30;2.10;;;;;;;;;;10510970;28;20068;-81
2022/05/29 09:57:55;;;;;;;1.50;1.30;;;;;;;;;;10469199;28;20040;-79
2022/05/29 10:02:57;;;;;;;3.42;1.55;;;;;;;;;;10465367;28;20274;-77
2022/05/29 10:07:59;;;;;;;2.67;1.63;;;;;;;;;;10489762;28;20043;-79
2022/05/29 10:13:09;;;;;;;3.20;1.55;;;;;;;;;;10493457;28;20047;-80
2022/05/29 10:18:31;;;;;;;3.53;1.65;;;;;;;;;;10463020;28;20037;-77
2022/05/29 10:23:34;;;;;;;3.40;1.77;;;;;;;;;;10486093;28;20052;-79
2022/05/29 10:28:37;;;;;;;5.40;2.35;;;;;;;;;;10476390;28;20052;-79
2022/05/29 10:33:38;;;;;;;5.00;2.70;;;;;;;;;;10474132;28;20614;-80
2022/05/29 10:38:40;;;;;;;6.32;3.40;;;;;;;;;;10421594;28;20139;-74
2022/05/29 10:43:48;;;;;;;4.45;1.70;;;;;;;;;;10453940;28;20196;-75
2022/05/29 10:48:48;;;;;;;4.03;1.70;;;;;;;;;;10469167;28;20037;-75
2022/05/29 10:54:00;;;;;;;5.82;2.05;;;;;;;;;;10466706;28;20056;-74
2022/05/29 10:59:26;;;;;;;4.85;1.88;;;;;;;;;;10473377;28;20045;-75
2022/05/29 11:04:26;;;;;;;3.25;1.65;;;;;;;;;;10466176;28;20073;-75
2022/05/29 11:09:32;;;;;;;3.97;1.77;;;;;;;;;;10454250;28;20130;-74
2022/05/29 11:14:36;;;;;;;5.43;3.22;;;;;;;;;;10475080;28;20570;-75
2022/05/29 11:19:49;;;;;;;6.15;2.33;;;;;;;;;;10452104;28;20052;-75
2022/05/29 11:25:06;;;;;;;4.10;1.70;;;;;;;;;;10475063;28;20113;-75
2022/05/29 11:30:19;;;;;;;5.32;1.83;;;;;;;;;;10446239;28;20778;-79
2022/05/29 11:35:27;;;;;;;3.88;2.17;;;;;;;;;;10468833;28;20032;-79
2022/05/29 11:40:31;;;;;;;3.13;1.77;;;;;;;;;;10418602;28;20075;-81
2022/05/29 11:51:18;;;;;;;4.72;2.28;;;;;;;;;;10454659;28;20491;-80
2022/05/29 11:56:37;;;;;;;3.55;2.33;;;;;;;;;;10482222;28;20045;-81
2022/05/29 12:01:40;;;;;;;5.82;2.08;;;;;;;;;;10477407;28;20067;-81
2022/05/29 12:06:52;;;;;;;6.50;2.22;;;;;;;;;;10489308;28;20047;-80
2022/05/29 12:11:59;;;;;;;3.15;1.70;;;;;;;;;;10496585;28;20391;-79
2022/05/29 12:17:26;;;;;;;4.43;1.45;;;;;;;;;;10437621;28;20041;-83
2022/05/29 12:22:30;;;;;;;5.90;2.10;;;;;;;;;;10445283;28;20049;-82
2022/05/29 12:27:33;;;;;;;3.10;1.73;;;;;;;;;;10482693;28;20115;-83
2022/05/29 12:32:35;;;;;;;3.13;1.97;;;;;;;;;;10494197;28;20043;-82
2022/05/29 12:37:57;;;;;;;3.90;1.50;;;;;;;;;;10444835;28;20078;-81
2022/05/29 12:43:18;;;;;;;3.28;2.28;;;;;;;;;;10428589;28;20054;-81
2022/05/29 12:48:28;;;;;;;3.33;1.70;;;;;;;;;;10488605;28;20075;-82
2022/05/29 12:53:28;;;;;;;5.35;2.22;;;;;;;;;;10469650;28;20045;-80
2022/05/29 12:58:31;;;;;;;5.97;3.22;;;;;;;;;;10445133;28;20088;-79
2022/05/29 13:03:36;;;;;;;4.53;2.53;;;;;;;;;;10469374;28;20044;-79
2022/05/29 13:08:48;;;;;;;3.30;2.15;;;;;;;;;;10468861;28;20076;-77
2022/05/29 13:13:53;;;;;;;4.07;2.92;;;;;;;;;;10421759;28;20062;-78
2022/05/29 13:19:17;;;;;;;5.25;2.50;;;;;;;;;;10476093;28;20063;-79
2022/05/29 13:24:19;;;;;;;4.40;2.10;;;;;;;;;;10448840;28;20084;-78
2022/05/29 13:29:38;;;;;;;3.03;2.20;;;;;;;;;;10480497;28;20136;-80
2022/05/29 13:34:43;;;;;;;4.50;2.30;;;;;;;;;;10477734;28;20062;-78
2022/05/29 13:39:59;;;;;;;3.90;1.95;;;;;;;;;;10496714;28;20029;-81
2022/05/29 13:45:00;;;;;;;4.00;2.33;;;;;;;;;;10478312;28;20575;-79
2022/05/29 13:50:00;;;;;;;2.90;2.40;;;;;;;;;;10503993;28;20040;-77
2022/05/29 13:55:03;;;;;;;5.00;2.20;;;;;;;;;;10477224;28;20108;-79
2022/05/29 14:05:28;;;;;;;3.35;2.65;;;;;;;;;;10505842;28;20102;-79
2022/05/29 14:10:29;;;;;;;4.47;2.15;;;;;;;;;;10501077;28;20118;-78
2022/05/29 14:15:32;;;;;;;3.08;2.05;;;;;;;;;;10478498;28;20044;-78
2022/05/29 14:20:47;;;;;;;3.67;2.45;;;;;;;;;;10487974;28;20043;-78
2022/05/29 14:26:06;;;;;;;4.25;2.30;;;;;;;;;;10468583;28;20132;-80
2022/05/29 14:31:25;;;;;;;2.78;1.95;;;;;;;;;;10484779;28;20049;-78
2022/05/29 14:36:28;;;;;;;3.80;2.05;;;;;;;;;;10445216;28;20089;-77
2022/05/29 14:41:31;;;;;;;3.38;2.20;;;;;;;;;;10462924;28;20108;-77
2022/05/29 14:51:55;;;;;;;2.75;1.90;;;;;;;;;;10457571;28;20049;-78
2022/05/29 14:56:58;;;;;;;3.92;2.30;;;;;;;;;;10436943;28;20051;-77
2022/05/29 15:02:00;;;;;;;3.30;2.20;;;;;;;;;;10463934;28;20052;-77
2022/05/29 15:12:21;;;;;;;2.63;2.10;;;;;;;;;;10476339;28;20052;-78
2022/05/29 15:17:22;;;;;;;3.28;2.40;;;;;;;;;;10469110;28;20049;-80
2022/05/29 15:27:44;;;;;;;3.20;1.60;;;;;;;;;;10465005;28;20028;-79
2022/05/29 15:32:46;;;;;;;1.90;1.40;;;;;;;;;;10442827;28;20068;-79
2022/05/29 15:37:50;;;;;;;3.75;2.92;;;;;;;;;;10437850;28;20047;-77
2022/05/29 15:43:09;;;;;;;2.50;1.63;;;;;;;;;;10464177;28;20040;-80
2022/05/29 15:48:46;;;;;;;3.17;1.88;;;;;;;;;;10472074;28;20033;-77
2022/05/29 15:53:59;;;;;;;5.68;4.15;;;;;;;;;;10390052;28;20087;-79
2022/05/29 15:58:59;;;;;;;;;;;;;;;;;;10483810;28;20111;-78
2022/05/29 16:04:00;;;;;;;4.00;2.20;;;;;;;;;;10481242;28;19973;-78
2022/05/29 16:09:06;;;;;;;4.57;2.30;;;;;;;;;;10453794;28;20053;-79
2022/05/29 16:14:06;;;;;;;6.10;3.50;;;;;;;;;;10466856;28;20468;-80
2022/05/29 16:19:21;;;;;;;3.53;2.05;;;;;;;;;;10417830;28;20040;-79
2022/05/29 16:24:28;;;;;;;5.20;2.25;;;;;;;;;;10445593;28;20069;-80
2022/05/29 16:29:41;;;;;;;3.83;2.30;;;;;;;;;;10467924;28;20063;-79
2022/05/29 16:34:46;;;;;;;10.57;5.70;;;;;;;;;;10475672;28;20037;-78
2022/05/29 16:50:32;;;;;;;4.82;1.92;;;;;;;;;;10448080;28;20060;-79
2022/05/29 16:55:49;;;;;;;;;;;;;;;;;;;;;
2022/05/29 17:01:20;;;;;;;5.13;2.20;;;;;;;;;;10456582;28;20134;-81
2022/05/29 17:06:39;;;;;;;4.80;2.45;;;;;;;;;;10446086;28;20128;-83
2022/05/29 17:11:41;;;;;;;4.85;3.88;;;;;;;;;;10448777;28;20488;-81
2022/05/29 17:16:42;;;;;;;3.35;2.53;;;;;;;;;;10454647;28;20045;-81
2022/05/29 17:21:46;;;;;;;6.10;3.83;;;;;;;;;;10461742;28;20048;-83
2022/05/29 17:27:02;;;;;;;7.07;3.83;;;;;;;;;;10453782;28;20044;-84
2022/05/29 17:32:02;;;;;;;;;;;;;;;;;;10416946;28;20136;-78
2022/05/29 17:37:04;;;;;;;3.55;2.10;;;;;;;;;;10495803;28;20290;-81
2022/05/29 17:42:04;;;;;;;5.22;3.03;;;;;;;;;;10429554;28;20040;-79
2022/05/29 17:47:09;;;;;;;4.50;2.67;;;;;;;;;;10462588;28;20041;-79
2022/05/29 17:52:15;;;;;;;3.53;2.13;;;;;;;;;;10462067;28;20049;-79
2022/05/29 17:57:22;;;;;;;2.47;2.00;;;;;;;;;;10431016;28;20050;-82
2022/05/29 18:02:25;;;;;;;4.57;2.97;;;;;;;;;;10448703;28;20063;-78
2022/05/29 18:07:26;;;;;;;2.75;2.28;;;;;;;;;;10456526;28;20062;-78
2022/05/29 18:12:30;;;;;;;4.25;2.20;;;;;;;;;;10427249;28;20139;-79
2022/05/29 18:17:31;;;;;;;4.63;2.92;;;;;;;;;;10477280;28;20448;-79
2022/05/29 18:22:33;;;;;;;4.13;2.38;;;;;;;;;;10427676;28;20167;-83
2022/05/29 18:27:35;;;;;;;4.50;3.13;;;;;;;;;;10455012;28;20097;-80
2022/05/29 18:32:37;;;;;;;6.50;3.60;;;;;;;;;;10453861;28;20052;-78
2022/05/29 18:37:38;;;;;;;5.17;2.97;;;;;;;;;;10488046;28;20182;-79
2022/05/29 18:42:38;;;;;;;3.40;2.35;;;;;;;;;;10466071;28;20083;-80
2022/05/29 18:47:39;;;;;;;4.20;2.50;;;;;;;;;;10484683;28;20060;-80
2022/05/29 18:52:43;;;;;;;2.83;2.38;;;;;;;;;;10478895;28;20052;-79
2022/05/29 18:57:43;;;;;;;;;;;;;;;;;;10468859;28;20087;-79
2022/05/29 19:02:44;;;;;;;5.50;2.60;;;;;;;;;;10466811;28;19924;-82
2022/05/29 19:07:45;;;;;;;6.22;2.80;;;;;;;;;;10467456;28;20544;-85
2022/05/29 19:12:48;;;;;;;3.50;2.70;;;;;;;;;;10438024;28;20053;-82
2022/05/29 19:18:09;;;;;;;3.08;2.53;;;;;;;;;;10441897;28;20053;-83
2022/05/29 19:23:12;;;;;;;8.43;3.90;;;;;;;;;;10435955;28;20060;-81
2022/05/29 19:28:14;;;;;;;4.78;3.20;;;;;;;;;;10423512;28;20127;-83
2022/05/29 19:33:14;;;;;;;5.25;3.42;;;;;;;;;;10468589;28;20102;-80
2022/05/29 19:38:44;;;;;;;6.18;3.28;;;;;;;;;;10465756;28;20116;-82
2022/05/29 19:43:49;;;;;;;4.20;2.80;;;;;;;;;;10461078;28;20064;-81
2022/05/29 19:48:50;;;;;;;5.03;3.20;;;;;;;;;;10460135;28;20044;-82
2022/05/29 19:53:52;;;;;;;3.55;3.03;;;;;;;;;;10446845;28;20048;-81
2022/05/29 19:58:54;;;;;;;7.85;4.05;;;;;;;;;;10509582;28;20041;-80
2022/05/29 20:03:56;;;;;;;4.30;2.80;;;;;;;;;;10485055;28;20060;-82
2022/05/29 20:08:59;;;;;;;3.22;2.92;;;;;;;;;;10473490;28;20053;-83
2022/05/29 20:14:00;;;;;;;3.22;2.92;;;;;;;;;;10456486;28;20132;-80
2022/05/29 20:19:03;;;;;;;4.65;3.45;;;;;;;;;;10495783;28;20048;-83
2022/05/29 20:24:04;;;;;;;4.45;3.38;;;;;;;;;;10471678;28;20067;-82
2022/05/29 20:29:09;;;;;;;5.78;2.90;;;;;;;;;;10469090;28;20037;-82
2022/05/29 20:34:14;;;;;;;4.50;3.60;;;;;;;;;;10485301;28;20045;-84
2022/05/29 20:39:16;;;;;;;6.07;4.10;;;;;;;;;;10480911;28;20049;-79
2022/05/29 20:44:31;;;;;;;3.90;3.20;;;;;;;;;;10455259;28;20510;-83
2022/05/29 20:49:36;;;;;;;5.80;4.00;;;;;;;;;;10514206;28;20091;-84
2022/05/29 20:54:37;;;;;;;9.10;4.40;;;;;;;;;;10458785;28;20040;-81
2022/05/29 20:59:38;;;;;;;4.55;3.78;;;;;;;;;;10474157;28;20041;-80
2022/05/29 21:04:38;;;;;;;5.85;4.50;;;;;;;;;;10499185;28;20052;-83
2022/05/29 21:09:40;;;;;;;7.15;4.60;;;;;;;;;;10507648;28;20036;-80
2022/05/29 21:14:40;;;;;;;7.10;5.00;;;;;;;;;;10466760;28;20052;-81
2022/05/29 21:19:41;;;;;;;7.10;4.68;;;;;;;;;;10475899;28;20068;-80
2022/05/29 21:24:45;;;;;;;5.13;4.53;;;;;;;;;;10418635;28;20374;-81
2022/05/29 21:29:45;;;;;;;8.43;4.20;;;;;;;;;;10419529;28;20047;-82
2022/05/29 21:34:48;;;;;;;7.17;5.00;;;;;;;;;;10461560;28;20162;-82
2022/05/29 21:39:49;;;;;;;6.93;4.18;;;;;;;;;;10454014;28;20047;-84
2022/05/29 21:44:50;;;;;;;5.78;4.47;;;;;;;;;;10453522;28;20742;-79
2022/05/29 21:49:51;;;;;;;5.85;4.47;;;;;;;;;;10480413;28;20179;-80
2022/05/29 21:54:51;;;;;;;6.10;5.07;;;;;;;;;;10467839;28;20033;-80
2022/05/29 21:59:52;;;;;;;5.80;5.15;;;;;;;;;;10446386;28;20037;-78
2022/05/29 22:04:52;;;;;;;6.28;5.20;;;;;;;;;;10471093;28;20055;-79
2022/05/29 22:09:52;;;;;;;9.07;5.05;;;;;;;;;;10436401;28;20042;-79
2022/05/29 22:14:53;;;;;;;6.25;5.07;;;;;;;;;;10435633;28;20070;-78
2022/05/29 22:19:54;;;;;;;8.80;5.55;;;;;;;;;;10443709;28;20064;-79
2022/05/29 22:24:57;;;;;;;13.27;7.45;;;;;;;;;;10460169;28;20075;-78
2022/05/29 22:29:58;;;;;;;9.40;6.05;;;;;;;;;;10472216;28;20032;-77
2022/05/29 22:35:09;;;;;;;9.40;6.47;;;;;;;;;;10446519;28;20045;-80
2022/05/29 22:40:13;;;;;;;8.45;6.30;;;;;;;;;;10460439;28;20790;-79
2022/05/29 22:45:13;;;;;;;;;;;;;;;;;;10449577;28;20052;-80
2022/05/29 22:50:19;;;;;;;5.68;4.95;;;;;;;;;;10478038;28;19973;-81
2022/05/29 22:55:21;;;;;;;5.95;5.20;;;;;;;;;;10461794;28;20048;-78
2022/05/29 23:00:23;;;;;;;5.80;5.03;;;;;;;;;;10483523;28;20036;-81
2022/05/29 23:05:24;;;;;;;6.28;5.68;;;;;;;;;;10495239;28;20079;-81
2022/05/29 23:10:25;;;;;;;7.43;5.18;;;;;;;;;;10495906;28;20140;-81
2022/05/29 23:15:25;;;;;;;7.15;5.40;;;;;;;;;;10463370;28;20041;-80
2022/05/29 23:20:26;;;;;;;5.80;5.15;;;;;;;;;;10487914;28;20407;-78
2022/05/29 23:25:27;;;;;;;5.63;4.95;;;;;;;;;;10459972;28;20052;-81
2022/05/29 23:30:33;;;;;;;5.88;5.20;;;;;;;;;;10484907;28;20068;-80
2022/05/29 23:35:36;;;;;;;6.72;5.40;;;;;;;;;;10435667;28;20049;-80
2022/05/29 23:40:39;;;;;;;5.50;5.00;;;;;;;;;;10461006;28;20052;-82
2022/05/29 23:46:00;;;;;;;6.13;5.35;;;;;;;;;;10477152;28;20470;-78
2022/05/29 23:51:01;;;;;;;5.75;5.13;;;;;;;;;;10455660;28;20135;-78
2022/05/29 23:56:04;;;;;;;6.03;4.77;;;;;;;;;;10483079;28;20051;-79
